Time;durP1;ratioP1;P1;durP2;ratioP2;P2;SDS_P1;SDS_P2;PMS_P1;PMS_P2;Temp;Humidity;BMP_temperature;BMP_pressure;BME280_temperature;BME280_humidity;BME280_pressure;Samples;Min_cycle;Max_cycle;Signal;HPM_P1;HPM_P2
2021/10/10 00:01:08;;;;;;;30.65;17.80;;;4.70;99.90;;;5.77;100.00;101687.63;6073961;23;20020;-83
2021/10/10 00:03:34;;;;;;;27.95;17.20;;;4.70;99.90;;;5.82;100.00;101689.47;6073304;23;20041;-85
2021/10/10 00:06:00;;;;;;;28.08;17.15;;;4.80;99.90;;;5.87;100.00;101689.44;6074353;23;20010;-83
2021/10/10 00:08:26;;;;;;;27.33;16.90;;;4.80;99.90;;;5.89;100.00;101686.34;6074437;23;20089;-82
2021/10/10 00:10:52;;;;;;;25.55;16.70;;;4.80;99.90;;;5.89;100.00;101687.16;6073091;23;20010;-83
2021/10/10 00:13:18;;;;;;;28.08;17.95;;;4.80;99.90;;;5.86;100.00;101687.78;6048905;23;20074;-84
2021/10/10 00:15:44;;;;;;;26.00;15.55;;;4.80;99.90;;;5.82;100.00;101683.91;6099106;23;20006;-84
2021/10/10 00:18:12;;;;;;;24.33;15.68;;;4.80;99.90;;;5.80;100.00;101687.00;6097552;23;20029;-81
2021/10/10 00:20:39;;;;;;;25.92;16.02;;;4.80;99.90;;;5.78;100.00;101691.19;6097596;23;20011;-81
2021/10/10 00:23:12;;;;;;;23.67;15.82;;;4.70;99.90;;;5.72;100.00;101696.00;6081817;23;20006;-82
2021/10/10 00:25:38;;;;;;;26.52;15.77;;;4.70;99.90;;;5.68;100.00;101694.94;6106917;23;20014;-82
2021/10/10 00:28:04;;;;;;;25.88;16.42;;;4.70;99.90;;;5.71;100.00;101699.09;6074669;23;20006;-85
2021/10/10 00:30:30;;;;;;;29.33;17.30;;;4.70;99.90;;;5.73;100.00;101692.09;6089898;23;20010;-84
2021/10/10 00:32:55;;;;;;;28.50;16.60;;;4.70;99.90;;;5.71;100.00;101701.84;6098651;23;20010;-85
2021/10/10 00:35:21;;;;;;;23.90;15.18;;;4.60;99.90;;;5.62;100.00;101698.13;6099493;23;20439;-85
2021/10/10 00:37:47;;;;;;;26.05;15.95;;;4.60;99.90;;;5.50;100.00;101690.22;6104500;23;20029;-87
2021/10/10 00:40:14;;;;;;;25.02;14.88;;;4.50;99.90;;;5.46;100.00;101691.94;6100865;23;20022;-85
2021/10/10 00:42:41;;;;;;;23.15;14.27;;;4.40;99.90;;;5.34;100.00;101688.78;6075476;23;20036;-81
2021/10/10 00:45:08;;;;;;;29.55;16.75;;;4.30;99.90;;;5.37;100.00;101690.97;6051606;23;20362;-87
2021/10/10 00:47:37;;;;;;;27.60;16.00;;;4.30;99.90;;;5.43;100.00;101689.78;6073804;23;20179;-84
2021/10/10 00:50:05;;;;;;;23.50;15.32;;;4.40;99.90;;;5.43;100.00;101691.72;6074496;23;20017;-83
2021/10/10 00:52:40;;;;;;;27.10;17.02;;;4.40;99.90;;;5.38;100.00;101684.31;6050441;23;20021;-84
2021/10/10 00:55:08;;;;;;;20.48;13.65;;;4.30;99.90;;;5.27;100.00;101691.09;6078346;23;20022;-86
2021/10/10 00:57:40;;;;;;;26.75;14.82;;;4.30;99.90;;;5.18;100.00;101687.34;6107283;23;20006;-85
2021/10/10 01:00:08;;;;;;;25.90;14.35;;;4.10;99.90;;;5.11;100.00;101682.16;6051961;23;20007;-86
2021/10/10 01:02:36;;;;;;;21.08;13.55;;;4.10;99.90;;;4.98;100.00;101684.81;6074678;23;20015;-86
2021/10/10 01:05:05;;;;;;;22.00;14.25;;;3.90;99.90;;;4.89;100.00;101684.66;6099887;23;20010;-85
2021/10/10 01:07:31;;;;;;;21.30;14.13;;;3.90;99.90;;;4.88;100.00;101694.06;6073940;23;20014;-87
2021/10/10 01:09:59;;;;;;;23.38;14.55;;;3.90;99.90;;;4.84;100.00;101695.81;6073505;23;20448;-84
2021/10/10 01:12:27;;;;;;;22.42;14.63;;;3.80;99.90;;;4.78;100.00;101695.03;6050761;23;20022;-85
2021/10/10 01:14:55;;;;;;;24.13;15.55;;;3.80;99.90;;;4.79;100.00;101684.78;6074272;23;20007;-84
2021/10/10 01:17:24;;;;;;;23.27;15.25;;;3.80;99.90;;;4.77;100.00;101687.84;6074305;23;20006;-82
2021/10/10 01:19:54;;;;;;;19.02;13.32;;;3.80;99.90;;;4.68;100.00;101694.34;6099700;23;20043;-85
2021/10/10 01:22:21;;;;;;;26.88;13.43;;;3.70;99.90;;;4.61;100.00;101691.91;6073729;23;20325;-82
2021/10/10 01:24:47;;;;;;;21.45;14.32;;;3.60;99.90;;;4.61;100.00;101686.38;6073555;23;20418;-84
2021/10/10 01:27:14;;;;;;;23.55;15.02;;;3.60;99.90;;;4.63;100.00;101689.66;6073541;23;20002;-85
2021/10/10 01:29:41;;;;;;;21.50;14.18;;;3.60;99.90;;;4.62;100.00;101687.22;6073652;23;20014;-82
2021/10/10 01:32:08;;;;;;;23.15;14.60;;;3.60;99.90;;;4.60;100.00;101698.56;6073620;23;20015;-86
2021/10/10 01:34:34;;;;;;;24.60;14.32;;;3.60;99.90;;;4.58;100.00;101697.22;6073472;23;20011;-86
2021/10/10 01:37:00;;;;;;;22.50;14.40;;;3.60;99.90;;;4.55;100.00;101695.03;6074132;23;20098;-84
2021/10/10 01:39:28;;;;;;;21.50;14.07;;;3.50;99.90;;;4.48;100.00;101694.53;6099211;23;20026;-82
2021/10/10 01:41:54;;;;;;;20.58;14.55;;;3.50;99.90;;;4.47;100.00;101692.88;6098906;23;20006;-82
2021/10/10 01:44:20;;;;;;;21.52;14.27;;;3.50;99.90;;;4.49;100.00;101691.50;6072857;23;20017;-84
2021/10/10 01:46:46;;;;;;;21.15;14.25;;;3.50;99.90;;;4.50;100.00;101686.75;6073205;23;20070;-85
2021/10/10 01:49:12;;;;;;;22.00;14.05;;;3.50;99.90;;;4.42;100.00;101688.25;6072290;23;20432;-83
2021/10/10 01:51:38;;;;;;;24.63;15.15;;;3.50;99.90;;;4.38;100.00;101695.47;6073006;23;20089;-84
2021/10/10 01:54:04;;;;;;;25.23;15.45;;;3.40;99.90;;;4.39;100.00;101690.75;6097948;23;20006;-85
2021/10/10 01:56:31;;;;;;;26.17;15.52;;;3.40;99.90;;;4.42;100.00;101687.41;6099187;23;20041;-85
2021/10/10 01:58:57;;;;;;;22.80;14.88;;;3.50;99.90;;;4.50;100.00;101682.06;6049248;23;20432;-83
2021/10/10 02:01:23;;;;;;;25.17;15.65;;;3.50;99.90;;;4.60;100.00;101683.88;6073633;23;20057;-83
2021/10/10 02:03:49;;;;;;;27.17;18.13;;;3.60;99.90;;;4.69;100.00;101679.34;6072827;23;20077;-82
2021/10/10 02:06:14;;;;;;;27.35;17.08;;;3.60;99.90;;;4.77;100.00;101681.50;6072944;23;20010;-86
2021/10/10 02:08:40;;;;;;;27.17;16.45;;;3.70;99.90;;;4.83;100.00;101679.47;6073002;23;20008;-85
2021/10/10 02:11:06;;;;;;;28.02;15.65;;;3.80;99.90;;;4.81;100.00;101677.03;6073304;23;20320;-84
2021/10/10 02:13:32;;;;;;;23.13;15.25;;;3.80;99.90;;;4.78;100.00;101677.63;6073190;23;20014;-84
2021/10/10 02:15:58;;;;;;;21.00;13.38;;;3.80;99.90;;;4.72;100.00;101676.81;6073086;23;20436;-85
2021/10/10 02:18:25;;;;;;;22.00;14.13;;;3.70;99.90;;;4.66;100.00;101679.94;6073011;23;20033;-84
2021/10/10 02:20:51;;;;;;;26.85;15.45;;;3.70;99.90;;;4.63;100.00;101673.06;6072960;23;20006;-84
2021/10/10 02:23:17;;;;;;;24.08;14.30;;;3.60;99.90;;;4.57;100.00;101674.25;6072857;23;20014;-84
2021/10/10 02:25:43;;;;;;;22.80;14.02;;;3.60;99.90;;;4.47;100.00;101674.34;6073671;23;20034;-81
2021/10/10 02:28:10;;;;;;;23.70;14.20;;;3.50;99.90;;;4.43;100.00;101678.81;6073065;23;20432;-81
2021/10/10 02:30:36;;;;;;;21.92;14.05;;;3.40;99.90;;;4.39;100.00;101674.16;6074269;23;20041;-79
2021/10/10 02:33:03;;;;;;;22.92;14.95;;;3.40;99.90;;;4.31;100.00;101666.50;6073145;23;20006;-81
2021/10/10 02:35:29;;;;;;;23.42;14.77;;;3.30;99.90;;;4.34;100.00;101672.25;6098011;23;20006;-83
2021/10/10 02:37:54;;;;;;;26.77;15.20;;;3.30;99.90;;;4.38;100.00;101673.34;6072934;23;20596;-82
2021/10/10 02:40:21;;;;;;;19.88;13.48;;;3.40;99.90;;;4.32;100.00;101679.22;6072559;23;20419;-83
2021/10/10 02:42:46;;;;;;;24.30;13.52;;;3.30;99.90;;;4.14;100.00;101670.50;6072852;23;20006;-84
2021/10/10 02:45:12;;;;;;;23.95;13.82;;;3.20;99.90;;;4.09;100.00;101670.56;6072560;23;20045;-83
2021/10/10 02:47:38;;;;;;;25.98;15.50;;;3.10;99.90;;;4.11;100.00;101673.06;6072391;23;20017;-84
2021/10/10 02:50:06;;;;;;;21.92;13.52;;;3.10;99.90;;;4.11;100.00;101664.75;6073097;23;20014;-81
2021/10/10 02:52:32;;;;;;;23.30;14.82;;;3.10;99.90;;;4.16;100.00;101668.31;6072171;23;20439;-85
2021/10/10 02:54:58;;;;;;;26.25;15.55;;;3.10;99.90;;;4.23;100.00;101662.44;6071928;23;20069;-83
2021/10/10 02:57:24;;;;;;;25.15;15.07;;;3.20;99.90;;;4.25;100.00;101666.53;6072309;23;20376;-85
2021/10/10 02:59:49;;;;;;;20.02;14.48;;;3.20;99.90;;;4.23;100.00;101654.97;6073387;23;20506;-84
2021/10/10 03:02:15;;;;;;;22.27;14.25;;;3.20;99.90;;;4.24;100.00;101669.59;6073402;23;20074;-83
2021/10/10 03:04:41;;;;;;;23.80;14.48;;;3.30;99.90;;;4.22;100.00;101663.53;6073173;23;20435;-85
2021/10/10 03:07:08;;;;;;;24.83;14.25;;;3.20;99.90;;;4.19;100.00;101664.13;6085564;23;20018;-85
2021/10/10 03:09:34;;;;;;;23.92;13.85;;;3.20;99.90;;;4.12;100.00;101660.88;6087646;23;20015;-85
2021/10/10 03:12:00;;;;;;;25.08;15.32;;;3.20;99.90;;;4.14;100.00;101661.41;6074241;23;20093;-84
2021/10/10 03:14:26;;;;;;;22.40;14.35;;;3.10;99.90;;;4.12;100.00;101664.47;6071877;23;20006;-85
2021/10/10 03:16:52;;;;;;;24.13;15.00;;;3.10;99.90;;;4.12;100.00;101660.88;6072401;23;20021;-83
2021/10/10 03:19:18;;;;;;;23.88;13.95;;;3.10;99.90;;;4.12;100.00;101661.69;6071776;23;20105;-85
2021/10/10 03:21:43;;;;;;;23.58;14.52;;;3.10;99.90;;;4.08;100.00;101662.56;6071551;23;20344;-85
2021/10/10 03:24:10;;;;;;;23.65;15.63;;;3.10;99.90;;;4.11;100.00;101653.72;6071910;23;20029;-83
2021/10/10 03:26:36;;;;;;;26.48;15.68;;;3.10;99.90;;;4.09;100.00;101653.97;6071631;23;20120;-84
2021/10/10 03:29:02;;;;;;;28.75;13.60;;;3.10;99.90;;;4.11;100.00;101651.75;6081561;23;19998;-81
2021/10/10 03:31:29;;;;;;;24.38;15.20;;;3.10;99.90;;;4.12;100.00;101652.56;6094315;23;20010;-80
2021/10/10 03:33:55;;;;;;;22.02;14.05;;;3.10;99.90;;;4.10;100.00;101652.88;6091303;23;20026;-85
2021/10/10 03:36:20;;;;;;;24.13;13.95;;;3.10;99.90;;;4.13;100.00;101652.28;6086677;23;20038;-85
2021/10/10 03:38:46;;;;;;;26.63;14.57;;;3.10;99.90;;;4.17;100.00;101650.56;6087815;23;20033;-84
2021/10/10 03:41:12;;;;;;;23.15;14.55;;;3.20;99.90;;;4.23;100.00;101648.59;6086757;23;20017;-87
2021/10/10 03:43:39;;;;;;;26.65;14.98;;;3.20;99.90;;;4.29;100.00;101638.31;6086058;23;20033;-82
2021/10/10 03:46:05;;;;;;;26.08;15.07;;;3.30;99.90;;;4.27;100.00;101643.31;6087747;23;20010;-85
2021/10/10 03:48:31;;;;;;;23.08;14.55;;;3.30;99.90;;;4.33;100.00;101642.16;6111884;23;20086;-85
2021/10/10 03:50:57;;;;;;;24.02;14.48;;;3.30;99.90;;;4.42;100.00;101638.44;6114352;23;20010;-85
2021/10/10 03:53:31;;;;;;;21.98;14.27;;;3.40;99.90;;;4.47;100.00;101645.84;6088475;23;20062;-81
2021/10/10 03:55:57;;;;;;;21.92;13.95;;;3.40;99.90;;;4.47;100.00;101638.38;6087145;23;20002;-85
2021/10/10 03:58:23;;;;;;;22.70;14.20;;;3.40;99.90;;;4.48;100.00;101634.50;6085274;23;20009;-85
2021/10/10 04:00:49;;;;;;;32.15;15.75;;;3.40;99.90;;;4.43;100.00;101628.22;6086525;23;20014;-86
2021/10/10 04:03:17;;;;;;;24.00;13.77;;;3.40;99.90;;;4.38;100.00;101636.53;6113042;23;20010;-85
2021/10/10 04:05:47;;;;;;;21.15;12.77;;;3.40;99.90;;;4.35;100.00;101626.06;6087401;23;20039;-82
2021/10/10 04:08:13;;;;;;;22.48;13.82;;;3.40;99.90;;;4.34;100.00;101618.88;6087329;23;20021;-84
2021/10/10 04:10:39;;;;;;;20.00;12.98;;;3.40;99.90;;;4.31;100.00;101619.47;6087358;23;20010;-83
2021/10/10 04:13:06;;;;;;;21.75;13.55;;;3.30;99.90;;;4.34;100.00;101627.19;6087982;23;20021;-86
2021/10/10 04:15:35;;;;;;;23.35;13.77;;;3.30;99.90;;;4.41;100.00;101628.50;6088989;23;20343;-85
2021/10/10 04:18:01;;;;;;;20.95;12.40;;;3.40;99.90;;;4.40;100.00;101617.72;6088982;23;20035;-87
2021/10/10 04:20:27;;;;;;;21.33;13.05;;;3.40;99.90;;;4.36;100.00;101617.50;6088063;23;20006;-84
2021/10/10 04:22:53;;;;;;;21.42;11.75;;;3.40;99.90;;;4.33;100.00;101620.03;6111942;23;20057;-88
2021/10/10 04:25:19;;;;;;;20.02;11.63;;;3.30;99.90;;;4.23;100.00;101618.19;6088148;23;20018;-86
2021/10/10 04:27:45;;;;;;;17.40;11.30;;;3.20;99.90;;;4.19;100.00;101622.66;6089281;23;20014;-88
2021/10/10 04:30:15;;;;;;;21.33;11.18;;;3.20;99.90;;;4.17;100.00;101622.13;6096517;23;19998;-81
2021/10/10 04:32:43;;;;;;;18.65;12.02;;;3.20;99.90;;;4.21;100.00;101632.28;6099250;23;20002;-78
2021/10/10 04:35:12;;;;;;;20.08;11.90;;;3.20;99.90;;;4.21;100.00;101617.63;6100035;23;20014;-79
2021/10/10 04:37:38;;;;;;;18.00;10.63;;;3.20;99.90;;;4.17;100.00;101614.63;6061009;23;20113;-84
2021/10/10 04:40:06;;;;;;;21.75;12.23;;;3.20;99.90;;;4.17;100.00;101620.16;6050872;23;20010;-83
2021/10/10 04:42:39;;;;;;;19.80;11.98;;;3.20;99.90;;;4.19;100.00;101617.13;6027910;23;20011;-85
2021/10/10 04:45:08;;;;;;;18.27;10.85;;;3.20;99.90;;;4.14;100.00;101622.72;6073941;23;20010;-85
2021/10/10 04:47:34;;;;;;;18.08;11.93;;;3.10;99.90;;;4.06;100.00;101618.63;6073537;23;20011;-83
2021/10/10 04:50:00;;;;;;;16.13;10.18;;;3.10;99.90;;;3.97;100.00;101612.09;6074846;23;20013;-84
2021/10/10 04:52:26;;;;;;;18.13;11.38;;;3.00;99.90;;;3.88;100.00;101618.53;6074600;23;20503;-83
2021/10/10 04:54:52;;;;;;;17.75;11.15;;;2.90;99.90;;;3.83;100.00;101605.56;6074822;23;20017;-86
2021/10/10 04:57:18;;;;;;;19.58;11.40;;;2.80;99.90;;;3.81;100.00;101607.81;6074584;23;20345;-83
2021/10/10 04:59:50;;;;;;;17.48;11.23;;;2.80;99.90;;;3.78;100.00;101608.38;6074062;23;20045;-83
2021/10/10 05:02:20;;;;;;;22.23;11.43;;;2.80;99.90;;;3.78;100.00;101610.31;6073612;23;20435;-85
2021/10/10 05:04:46;;;;;;;18.98;11.88;;;2.80;99.90;;;3.78;100.00;101613.09;6050517;23;20078;-85
2021/10/10 05:07:12;;;;;;;20.65;11.63;;;2.80;99.90;;;3.78;100.00;101621.38;6073734;23;20390;-83
2021/10/10 05:09:38;;;;;;;21.40;11.85;;;2.80;99.90;;;3.74;100.00;101612.84;6100256;23;20085;-86
2021/10/10 05:12:04;;;;;;;20.35;11.50;;;2.80;99.90;;;3.67;100.00;101607.63;6074508;23;20002;-87
2021/10/10 05:14:30;;;;;;;17.60;10.77;;;2.70;99.90;;;3.71;100.00;101619.78;6074966;23;20015;-86
2021/10/10 05:16:57;;;;;;;19.67;10.68;;;2.70;99.90;;;3.68;100.00;101612.06;6073992;23;20053;-86
2021/10/10 05:19:25;;;;;;;17.48;10.65;;;2.70;99.90;;;3.64;100.00;101621.22;6100423;23;20010;-82
2021/10/10 05:21:51;;;;;;;17.23;11.05;;;2.60;99.90;;;3.61;100.00;101625.38;6050605;23;20073;-81
2021/10/10 05:24:17;;;;;;;14.00;10.32;;;2.60;99.90;;;3.55;100.00;101623.78;6073188;23;20444;-83
2021/10/10 05:26:43;;;;;;;20.92;11.60;;;2.60;99.90;;;3.56;100.00;101622.63;6073933;23;20010;-84
2021/10/10 05:29:09;;;;;;;18.40;11.10;;;2.60;99.90;;;3.54;100.00;101619.34;6073911;23;20022;-84
2021/10/10 05:31:35;;;;;;;21.67;12.73;;;2.60;99.90;;;3.41;100.00;101620.00;6099448;23;20014;-84
2021/10/10 05:34:01;;;;;;;16.35;10.48;;;2.50;99.90;;;3.33;100.00;101617.84;6073657;23;20097;-84
2021/10/10 05:36:27;;;;;;;18.60;11.52;;;2.50;99.90;;;3.26;100.00;101617.34;6074953;23;20022;-84
2021/10/10 05:38:53;;;;;;;17.27;10.80;;;2.40;99.90;;;3.21;100.00;101611.88;6074654;23;20057;-87
2021/10/10 05:41:20;;;;;;;19.55;11.30;;;2.40;99.90;;;3.19;100.00;101609.38;6097922;23;20010;-86
2021/10/10 05:43:46;;;;;;;17.83;11.55;;;2.40;99.90;;;3.25;100.00;101617.63;6073406;23;20045;-82
2021/10/10 05:46:13;;;;;;;21.17;11.52;;;2.50;99.90;;;3.29;100.00;101615.94;6099596;23;20002;-86
2021/10/10 05:48:39;;;;;;;20.90;11.77;;;2.50;99.90;;;3.31;100.00;101609.00;6073124;23;20013;-84
2021/10/10 05:51:05;;;;;;;19.50;12.00;;;2.50;99.90;;;3.37;100.00;101612.59;6073692;23;20081;-86
2021/10/10 05:53:31;;;;;;;19.75;11.30;;;2.50;99.90;;;3.37;100.00;101605.09;6073329;23;20093;-86
2021/10/10 05:56:02;;;;;;;16.30;10.55;;;2.50;99.90;;;3.39;100.00;101613.09;6099314;23;20006;-86
2021/10/10 05:58:31;;;;;;;68.82;19.83;;;2.50;99.90;;;3.41;100.00;101625.50;6073646;23;20034;-84
2021/10/10 06:00:57;;;;;;;17.88;10.60;;;2.60;99.90;;;3.42;100.00;101623.59;6098985;23;20085;-84
2021/10/10 06:03:23;;;;;;;19.42;11.70;;;2.60;99.90;;;3.43;100.00;101616.97;6098481;23;20066;-82
2021/10/10 06:05:49;;;;;;;17.15;10.45;;;2.60;99.90;;;3.46;100.00;101616.38;6075119;23;20010;-85
2021/10/10 06:08:15;;;;;;;16.20;10.25;;;2.50;99.90;;;3.35;100.00;101612.84;6099509;23;20017;-85
2021/10/10 06:10:44;;;;;;;16.60;10.57;;;2.50;99.90;;;3.41;100.00;101619.16;6074397;23;20037;-86
2021/10/10 06:13:11;;;;;;;18.02;10.95;;;2.50;99.90;;;3.51;100.00;101619.09;6073311;23;20013;-84
2021/10/10 06:15:38;;;;;;;16.90;9.90;;;2.60;99.90;;;3.62;100.00;101624.28;6050046;23;20037;-83
2021/10/10 06:18:09;;;;;;;16.48;10.43;;;2.70;99.90;;;3.66;100.00;101617.03;6074040;23;20018;-83
2021/10/10 06:20:36;;;;;;;16.75;11.10;;;2.70;99.90;;;3.77;100.00;101620.53;6097959;23;20057;-86
2021/10/10 06:23:03;;;;;;;19.70;10.85;;;2.80;99.90;;;3.90;100.00;101630.09;6073564;23;20014;-85
2021/10/10 06:25:28;;;;;;;19.63;11.73;;;2.90;99.90;;;4.04;100.00;101625.56;6076269;23;20010;-86
2021/10/10 06:27:54;;;;;;;16.92;10.50;;;3.00;99.90;;;4.15;100.00;101627.94;6074882;23;20065;-86
2021/10/10 06:30:21;;;;;;;20.80;11.27;;;3.10;99.90;;;4.34;100.00;101624.41;6051806;23;20117;-84
2021/10/10 06:32:46;;;;;;;19.58;11.60;;;3.30;99.90;;;4.46;100.00;101627.63;6094386;23;20019;-87
2021/10/10 06:35:12;;;;;;;19.88;11.40;;;3.40;99.90;;;4.58;100.00;101625.25;6077200;23;20011;-87
2021/10/10 06:37:39;;;;;;;18.50;10.48;;;3.60;99.90;;;4.76;100.00;101627.25;6076868;23;20011;-86
2021/10/10 06:40:06;;;;;;;16.50;10.73;;;3.70;99.90;;;4.95;100.00;101630.03;6077479;23;20017;-86
2021/10/10 06:42:32;;;;;;;20.08;11.63;;;3.80;99.90;;;5.17;100.00;101628.34;6079574;23;20101;-86
2021/10/10 06:45:00;;;;;;;19.27;11.00;;;4.00;99.90;;;5.46;100.00;101622.66;6107075;23;20109;-87
2021/10/10 06:47:26;;;;;;;20.08;11.70;;;4.30;99.90;;;5.77;100.00;101626.63;6104468;23;20018;-87
2021/10/10 06:49:51;;;;;;;16.75;11.27;;;4.50;99.90;;;6.03;100.00;101618.72;6084999;23;20034;-85
2021/10/10 06:52:20;;;;;;;18.80;11.68;;;4.80;99.90;;;6.27;100.00;101624.09;6084018;23;20002;-85
2021/10/10 06:54:47;;;;;;;17.40;11.43;;;5.00;99.90;;;6.31;100.00;101614.03;6081702;23;20010;-87
2021/10/10 06:57:13;;;;;;;18.85;10.60;;;5.10;99.90;;;6.31;100.00;101612.09;6084242;23;20010;-85
2021/10/10 06:59:40;;;;;;;19.58;10.35;;;5.20;99.90;;;6.50;100.00;101622.28;6079150;23;20041;-86
2021/10/10 07:02:11;;;;;;;13.70;10.15;;;5.30;99.90;;;6.79;100.00;101623.63;6079594;23;20604;-85
2021/10/10 07:04:37;;;;;;;15.35;10.70;;;5.50;99.90;;;7.08;100.00;101628.84;6079616;23;20017;-85
2021/10/10 07:07:05;;;;;;;15.45;9.93;;;5.80;99.90;;;7.22;100.00;101632.44;6080582;23;20010;-85
2021/10/10 07:09:36;;;;;;;16.05;9.98;;;6.00;99.90;;;7.18;100.00;101622.25;6084457;23;20077;-86
2021/10/10 07:12:03;;;;;;;16.15;10.63;;;6.00;99.90;;;7.28;100.00;101630.34;6085034;23;20006;-84
2021/10/10 07:14:31;;;;;;;15.00;10.20;;;6.10;99.90;;;7.42;100.00;101622.78;6081961;23;20032;-84
2021/10/10 07:16:58;;;;;;;14.57;9.65;;;6.20;99.90;;;7.66;100.00;101626.13;6079611;23;20138;-86
2021/10/10 07:19:45;;;;;;;15.48;10.43;;;6.40;99.90;;;7.95;100.00;101634.84;6076837;23;20013;-85
2021/10/10 07:22:27;;;;;;;15.88;10.52;;;6.60;99.90;;;8.22;99.30;101624.72;6079423;23;20037;-84
2021/10/10 07:25:07;;;;;;;16.33;9.35;;;6.90;99.90;;;8.52;97.98;101626.69;6080722;23;20010;-86
2021/10/10 07:27:48;;;;;;;16.73;9.65;;;7.20;99.90;;;8.74;96.60;101623.81;6107497;23;20078;-85
2021/10/10 07:30:16;;;;;;;14.98;9.95;;;7.40;99.90;;;8.92;95.40;101613.56;6119747;23;20018;-86
2021/10/10 07:32:43;;;;;;;16.60;10.23;;;7.60;99.90;;;9.17;95.11;101615.56;6088130;23;20006;-82
2021/10/10 07:35:11;;;;;;;14.18;9.85;;;7.80;99.90;;;9.42;94.23;101625.13;6081754;23;20034;-85
2021/10/10 07:37:38;;;;;;;18.05;10.27;;;8.00;99.90;;;9.50;94.05;101627.91;6083414;23;20397;-86
2021/10/10 07:40:06;;;;;;;14.60;10.13;;;8.10;99.90;;;9.67;94.29;101632.66;6079548;23;20010;-84
2021/10/10 07:42:33;;;;;;;17.98;9.85;;;8.30;99.90;;;10.03;93.93;101626.72;6106448;23;20014;-85
2021/10/10 07:45:07;;;;;;;19.55;12.05;;;8.60;99.90;;;10.37;92.70;101629.47;6082079;23;20101;-86
2021/10/10 07:47:47;;;;;;;20.38;11.55;;;8.90;99.90;;;10.60;91.21;101641.22;6080211;23;20010;-86
2021/10/10 07:50:19;;;;;;;15.90;9.32;;;9.10;99.90;;;10.83;90.08;101642.59;6080343;23;20007;-83
2021/10/10 07:52:47;;;;;;;15.32;9.65;;;9.30;99.90;;;11.02;88.73;101636.59;6081941;23;20011;-87
2021/10/10 07:55:14;;;;;;;16.52;9.95;;;9.50;99.90;;;11.23;87.86;101639.44;6085083;23;20353;-87
2021/10/10 07:57:40;;;;;;;14.55;9.90;;;9.70;99.90;;;11.49;85.40;101640.09;6084208;23;20022;-85
2021/10/10 08:00:11;;;;;;;16.83;10.60;;;10.00;99.90;;;11.74;84.50;101641.06;6080530;23;20034;-82
2021/10/10 08:03:01;;;;;;;14.95;9.85;;;10.20;99.90;;;11.90;83.67;101650.47;6079899;23;20030;-85
2021/10/10 08:06:19;;;;;;;13.60;9.70;;;10.30;99.90;;;12.05;83.40;101638.63;6081587;23;20030;-85
2021/10/10 08:08:47;;;;;;;16.15;10.30;;;10.50;99.90;;;12.24;82.75;101649.31;6080078;23;20093;-86
2021/10/10 08:11:28;;;;;;;13.98;9.15;;;10.70;99.90;;;12.42;81.88;101643.19;6087330;23;20006;-86
2021/10/10 08:13:56;;;;;;;13.20;9.13;;;10.90;99.90;;;12.76;81.41;101644.75;6088170;23;20010;-85
2021/10/10 08:16:25;;;;;;;14.60;9.80;;;11.20;99.90;;;13.05;79.67;101641.75;6086415;23;20017;-85
2021/10/10 08:18:53;;;;;;;11.75;8.45;;;11.40;99.90;;;13.44;78.46;101630.97;6087837;23;20440;-87
2021/10/10 08:21:29;;;;;;;13.40;8.98;;;11.70;99.90;;;13.73;76.11;101631.50;6114079;23;20086;-87
2021/10/10 08:24:01;;;;;;;14.95;9.18;;;12.10;99.90;;;13.98;73.83;101646.25;6090824;23;20010;-86
2021/10/10 08:26:28;;;;;;;15.20;9.00;;;12.30;99.90;;;14.06;73.79;101641.66;6086905;23;20026;-86
2021/10/10 08:28:57;;;;;;;13.95;9.40;;;12.40;99.90;;;13.93;73.03;101659.75;6086483;23;20096;-85
2021/10/10 08:31:26;;;;;;;13.68;9.02;;;12.30;99.90;;;14.01;72.61;101653.13;6109103;23;20037;-87
2021/10/10 08:33:56;;;;;;;14.20;8.63;;;12.30;99.90;;;14.17;73.30;101654.00;6084511;23;20030;-85
2021/10/10 08:36:24;;;;;;;14.00;9.27;;;12.50;99.90;;;14.40;73.45;101657.91;6108431;23;19999;-84
2021/10/10 08:38:51;;;;;;;12.80;9.05;;;12.70;99.90;;;14.64;72.41;101666.19;6084149;23;20021;-85
2021/10/10 08:41:39;;;;;;;11.80;7.93;;;12.90;99.90;;;15.03;70.95;101658.75;6107271;23;20007;-86
2021/10/10 08:44:15;;;;;;;15.02;8.90;;;13.20;99.90;;;15.22;68.68;101661.63;6083900;23;20014;-84
2021/10/10 08:46:45;;;;;;;15.82;9.00;;;13.40;99.90;;;15.31;70.00;101665.06;6084760;23;20034;-86
2021/10/10 08:49:20;;;;;;;13.02;9.50;;;13.50;99.90;;;15.17;66.81;101666.75;6086041;23;20034;-84
2021/10/10 08:51:46;;;;;;;14.75;8.50;;;13.40;99.90;;;14.83;67.62;101651.44;6083496;23;20013;-84
2021/10/10 08:54:13;;;;;;;13.18;8.88;;;13.20;99.90;;;14.92;68.36;101654.88;6083247;23;20007;-86
2021/10/10 08:56:44;;;;;;;13.70;8.48;;;13.30;99.90;;;15.22;68.36;101655.19;6106389;23;20009;-86
2021/10/10 08:59:11;;;;;;;11.82;8.10;;;13.50;99.90;;;15.49;65.66;101648.63;6109946;23;20006;-86
2021/10/10 09:01:39;;;;;;;12.20;8.27;;;13.70;99.90;;;15.70;65.33;101654.72;6076342;23;20429;-87
2021/10/10 09:04:05;;;;;;;15.85;9.05;;;13.90;99.90;;;15.83;65.80;101650.59;6074585;23;20495;-87
2021/10/10 09:06:34;;;;;;;14.68;8.80;;;14.00;99.90;;;16.02;64.96;101640.53;6103288;23;20318;-86
2021/10/10 09:09:29;;;;;;;15.98;9.30;;;14.30;99.90;;;16.45;62.40;101631.72;6085753;23;19998;-85
2021/10/10 09:12:16;;;;;;;13.10;8.15;;;14.60;99.90;;;16.98;63.89;101638.34;6092325;23;20420;-84
2021/10/10 09:15:07;;;;;;;13.68;8.02;;;15.00;99.90;;;17.20;62.34;101636.69;6089472;23;20331;-85
2021/10/10 09:17:33;;;;;;;14.43;8.80;;;15.30;99.90;;;17.24;61.60;101643.19;6089913;23;20021;-87
2021/10/10 09:20:04;;;;;;;17.20;8.52;;;15.50;99.90;;;17.40;59.08;101641.03;6080967;23;20010;-86
2021/10/10 09:22:31;;;;;;;11.00;7.80;;;15.50;99.90;;;17.63;59.05;101638.13;6080453;23;20069;-87
2021/10/10 09:25:21;;;;;;;13.63;8.50;;;15.60;99.90;;;17.77;59.13;101633.50;6081188;23;20003;-87
2021/10/10 09:28:04;;;;;;;12.07;8.65;;;15.80;99.90;;;17.84;58.52;101624.31;6084206;23;20029;-83
2021/10/10 09:30:50;;;;;;;10.55;7.63;;;16.00;99.90;;;17.97;58.19;101622.03;6104189;23;20013;-87
2021/10/10 09:33:17;;;;;;;13.20;7.97;;;16.10;99.90;;;17.97;59.98;101617.22;6077311;23;20085;-86
2021/10/10 09:36:27;;;;;;;11.00;7.70;;;16.20;99.90;;;18.35;57.03;101618.84;6080582;23;20392;-86
2021/10/10 09:39:07;;;;;;;13.98;8.10;;;16.40;99.90;;;18.33;55.42;101612.78;6103823;23;20070;-86
2021/10/10 09:42:05;;;;;;;14.75;8.23;;;16.50;99.90;;;18.42;54.61;101618.94;6081125;23;20089;-88
2021/10/10 09:44:55;;;;;;;15.55;8.02;;;16.70;99.90;;;18.59;56.43;101617.50;6089299;23;20003;-86
2021/10/10 09:47:49;;;;;;;13.38;7.63;;;16.80;99.90;;;18.90;54.03;101616.97;6115695;23;20014;-84
2021/10/10 09:50:29;;;;;;;12.50;7.10;;;17.00;99.90;;;18.98;52.83;101613.00;6091094;23;20037;-85
2021/10/10 09:53:39;;;;;;;11.98;7.50;;;17.20;99.90;;;19.23;52.14;101622.47;6094208;23;20153;-86
2021/10/10 09:56:09;;;;;;;11.32;7.35;;;17.30;99.90;;;18.99;51.85;101620.28;6051304;23;20450;-86
2021/10/10 09:58:43;;;;;;;9.93;5.95;;;17.20;99.90;;;19.28;51.23;101621.31;6079169;23;20105;-88
2021/10/10 10:01:23;;;;;;;11.20;6.63;;;17.40;99.90;;;19.69;50.31;101613.47;6079949;23;20017;-84
2021/10/10 10:04:09;;;;;;;12.23;7.22;;;17.70;99.90;;;20.10;49.33;101616.94;6081350;23;20021;-89
2021/10/10 10:06:43;;;;;;;11.93;6.93;;;17.90;99.90;;;20.08;48.11;101613.66;6081209;23;20014;-88
2021/10/10 10:09:12;;;;;;;11.43;6.68;;;18.00;99.60;;;19.69;49.94;101602.16;6082520;23;20021;-88
2021/10/10 10:11:44;;;;;;;12.35;6.68;;;17.80;99.90;;;19.49;50.56;101601.63;6086139;23;20013;-87
2021/10/10 10:14:18;;;;;;;9.10;5.95;;;17.70;99.90;;;19.69;48.91;101611.47;6084706;23;20007;-84
2021/10/10 10:16:50;;;;;;;11.82;7.50;;;17.80;99.20;;;19.65;49.34;101615.50;6080583;23;20107;-85